Terminal Aerodrome Forecast
Issued by NWS Burlington, VT

Home | Current Version | Previous Version | Text Only | Print | Product List | Glossary On
Versions: 1 2 3 4 5 6 7 8 9 10 11 12 13 14 15 16 17 18 19
294
FTUS41 KBTV 180538
TAFBTV
TAF
KBTV 180538Z 1806/1906 13006KT P6SM OVC150
     FM180800 15006KT P6SM VCSH BKN050 OVC100
     FM181100 16008KT P6SM -SHRA BKN040 OVC080
      TEMPO 1813/1817 4SM -SHRA BR BKN025
     FM181800 18010KT P6SM BKN040
     FM190000 18006KT P6SM VCSH BKN035=

USA.gov is the U.S. government's official web portal to all federal, state and local government web resources and services.